Strang, Oklahoma
Current Conditions -  °F | °C
As of 3:35 PM on Wednesday 26 Nov 2014 (Local Time) from KGCM Reporting Station
Clear Clear  
Wind Chill: 10°   Ceiling: Unl
Heat Index: 10°   Visibility: 10mi
Dew Point: -3°   Wind: 15mph
Humidity: 40%   Direction: 330°NNW
Pressure: 30.2"   Gusts: 26mph
Location:  36.41°N, 95.13°W
Report Text: KGCM 262135Z AUTO 33013G23KT 10SM CLR 10/M03 A3020 RMK AO2
Loading
Personal Weather Stations






























Interactive Weather Map New forecast layout! Learn more

10-Day Weather Forecast

Advertisements
Track Severe Weather on mobile